createdAt,value
2022-12-14T00:01:42.534Z,100245.28
2022-12-14T00:03:52.925Z,100255.81
2022-12-14T00:05:57.451Z,100255.00
2022-12-14T00:08:01.442Z,100258.59
2022-12-14T00:10:07.794Z,100246.56
2022-12-14T00:12:11.961Z,100251.81
2022-12-14T00:14:16.435Z,100256.19
2022-12-14T00:16:20.672Z,100251.03
2022-12-14T00:18:24.907Z,100252.75
2022-12-14T00:20:29.355Z,100250.13
2022-12-14T00:22:32.898Z,100252.75
2022-12-14T00:24:36.620Z,100255.34
2022-12-14T00:26:41.602Z,100259.66
2022-12-14T00:28:46.866Z,100254.50
2022-12-14T00:30:53.911Z,100255.28
2022-12-14T00:33:00.348Z,100249.25
2022-12-14T00:35:03.964Z,100251.88
2022-12-14T00:37:07.698Z,100257.16
2022-12-14T00:39:11.323Z,100251.03
2022-12-14T00:41:15.511Z,100254.41
2022-12-14T00:43:20.748Z,100250.13
2022-12-14T00:45:25.396Z,100250.97
2022-12-14T00:47:28.865Z,100244.88
2022-12-14T00:49:32.427Z,100249.31
2022-12-14T00:51:36.041Z,100253.78
2022-12-14T00:53:39.454Z,100248.59
2022-12-14T00:55:49.323Z,100246.03
2022-12-14T00:57:53.596Z,100252.06
2022-12-14T00:59:58.658Z,100245.94
2022-12-14T01:02:02.531Z,100241.59
2022-12-14T01:04:19.533Z,100247.63
2022-12-14T01:06:24.453Z,100251.94
2022-12-14T01:08:35.730Z,100257.00
2022-12-14T01:10:41.351Z,100257.78
2022-12-14T01:12:45.212Z,100250.66
2022-12-14T01:14:49.991Z,100253.28
2022-12-14T01:16:54.963Z,100255.81
2022-12-14T01:18:58.495Z,100265.31
2022-12-14T01:21:13.828Z,100253.97
2022-12-14T01:23:18.218Z,100260.06
2022-12-14T01:25:22.205Z,100262.69
2022-12-14T01:27:26.096Z,100257.53
2022-12-14T01:29:29.709Z,100268.03
2022-12-14T01:31:36.182Z,100259.41
2022-12-14T01:33:41.762Z,100259.47
2022-12-14T01:35:45.269Z,100267.41
2022-12-14T01:37:48.978Z,100272.75
2022-12-14T01:39:52.911Z,100274.59
2022-12-14T01:41:56.778Z,100258.16
2022-12-14T01:44:02.718Z,100273.16
2022-12-14T01:46:06.455Z,100278.53
2022-12-14T01:48:15.532Z,100280.56
2022-12-14T01:50:29.379Z,100281.66
2022-12-14T01:52:38.318Z,100287.88
2022-12-14T01:54:48.759Z,100285.44
2022-12-14T01:56:53.947Z,100285.56
2022-12-14T01:59:03.370Z,100295.22
2022-12-14T02:01:07.264Z,100290.13
2022-12-14T02:03:14.051Z,100291.94
2022-12-14T02:05:19.952Z,100300.72
2022-12-14T02:07:26.925Z,100299.00
2022-12-14T02:09:35.555Z,100303.38
2022-12-14T02:11:48.420Z,100300.03
2022-12-14T02:13:52.073Z,100299.22
2022-12-14T02:15:55.861Z,100304.53
2022-12-14T02:17:59.611Z,100304.66
2022-12-14T02:20:04.424Z,100306.47
2022-12-14T02:22:38.247Z,100308.31
2022-12-14T02:25:08.426Z,100300.59
2022-12-14T02:27:17.017Z,100307.56
2022-12-14T02:29:34.695Z,100308.53
2022-12-14T02:31:49.140Z,100314.69
2022-12-14T02:33:59.400Z,100309.47
2022-12-14T02:36:12.588Z,100315.66
2022-12-14T02:38:39.288Z,100312.97
2022-12-14T02:40:52.684Z,100313.88
2022-12-14T02:43:03.067Z,100317.38
2022-12-14T02:45:13.701Z,100316.53
2022-12-14T02:47:26.389Z,100313.03
2022-12-14T02:49:49.239Z,100319.09
2022-12-14T02:51:59.665Z,100316.50
2022-12-14T02:54:08.563Z,100316.50
2022-12-14T02:56:16.499Z,100315.59
2022-12-14T02:58:25.539Z,100310.22
2022-12-14T03:00:33.684Z,100305.00
2022-12-14T03:02:40.337Z,100302.31
2022-12-14T03:04:49.168Z,100305.81
2022-12-14T03:07:02.857Z,100292.66
2022-12-14T03:09:11.285Z,100301.34
2022-12-14T03:11:19.999Z,100299.66
2022-12-14T03:13:29.033Z,100300.44
2022-12-14T03:15:38.295Z,100299.56
2022-12-14T03:17:43.854Z,100305.63
2022-12-14T03:19:56.083Z,100305.69
2022-12-14T03:22:01.791Z,100302.94
2022-12-14T03:24:12.643Z,100305.50
2022-12-14T03:26:22.815Z,100299.28
2022-12-14T03:28:31.959Z,100302.72
2022-12-14T03:30:59.562Z,100303.50
2022-12-14T03:33:09.234Z,100300.75
2022-12-14T03:35:19.105Z,100299.78
2022-12-14T03:37:29.328Z,100302.34
2022-12-14T03:39:36.018Z,100304.03
2022-12-14T03:41:48.737Z,100300.53
2022-12-14T03:44:05.912Z,100300.41
2022-12-14T03:46:16.319Z,100302.91
2022-12-14T03:48:32.510Z,100296.75
2022-12-14T03:50:41.407Z,100301.06
2022-12-14T03:52:55.136Z,100293.16
2022-12-14T03:55:06.969Z,100307.06
2022-12-14T03:57:18.491Z,100296.53
2022-12-14T03:59:30.552Z,100299.91
2022-12-14T04:01:45.352Z,100296.38
2022-12-14T04:03:54.727Z,100304.91
2022-12-14T04:06:04.438Z,100310.13
2022-12-14T04:08:12.936Z,100310.13
2022-12-14T04:10:43.347Z,100316.22
2022-12-14T04:13:04.644Z,100310.97
2022-12-14T04:15:31.855Z,100317.09
2022-12-14T04:18:06.710Z,100318.00
2022-12-14T04:20:17.004Z,100317.13
2022-12-14T04:22:24.195Z,100319.88
2022-12-14T04:24:51.669Z,100318.13
2022-12-14T04:26:58.499Z,100323.38
2022-12-14T04:29:25.560Z,100321.78
2022-12-14T04:31:32.111Z,100329.72
2022-12-14T04:33:50.077Z,100329.84
2022-12-14T04:35:55.076Z,100321.31
2022-12-14T04:38:02.285Z,100337.97
2022-12-14T04:40:09.956Z,100330.31
2022-12-14T04:42:16.734Z,100328.69
2022-12-14T04:44:25.138Z,100326.25
2022-12-14T04:46:37.560Z,100323.63
2022-12-14T04:48:55.720Z,100316.69
2022-12-14T04:51:10.920Z,100317.53
2022-12-14T04:53:19.974Z,100322.78
2022-12-14T04:55:29.613Z,100323.50
2022-12-14T04:57:40.141Z,100326.88
2022-12-14T04:59:44.286Z,100325.09
2022-12-14T05:01:57.280Z,100327.72
2022-12-14T05:04:12.306Z,100337.38
2022-12-14T05:06:22.268Z,100330.47
2022-12-14T05:08:38.970Z,100336.53
2022-12-14T05:10:46.012Z,100336.47
2022-12-14T05:12:57.095Z,100341.53
2022-12-14T05:15:07.115Z,100334.41
2022-12-14T05:17:10.711Z,100342.16
2022-12-14T05:19:16.763Z,100335.16
2022-12-14T05:21:33.969Z,100334.31
2022-12-14T05:23:37.219Z,100332.59
2022-12-14T05:25:40.623Z,100340.44
2022-12-14T05:27:43.840Z,100329.16
2022-12-14T05:29:47.146Z,100331.78
2022-12-14T05:31:51.458Z,100327.53
2022-12-14T05:33:54.702Z,100327.59
2022-12-14T05:35:59.326Z,100324.06
2022-12-14T05:38:02.565Z,100319.63
2022-12-14T05:40:06.822Z,100331.69
2022-12-14T05:42:10.038Z,100322.81
2022-12-14T05:44:13.383Z,100324.56
2022-12-14T05:46:16.759Z,100329.06
2022-12-14T05:48:20.030Z,100328.13
2022-12-14T05:50:23.281Z,100336.94
2022-12-14T05:52:28.421Z,100336.19
2022-12-14T05:54:31.652Z,100335.31
2022-12-14T05:56:34.893Z,100337.00
2022-12-14T05:58:38.879Z,100343.06
2022-12-14T06:00:42.124Z,100339.56
2022-12-14T06:02:45.485Z,100344.69
2022-12-14T06:04:48.877Z,100329.72
2022-12-14T06:06:52.279Z,100339.34
2022-12-14T06:08:56.882Z,100343.66
2022-12-14T06:11:03.929Z,100350.66
2022-12-14T06:13:07.202Z,100348.97
2022-12-14T06:15:11.266Z,100348.22
2022-12-14T06:17:14.485Z,100352.63
2022-12-14T06:19:17.787Z,100359.59
2022-12-14T06:21:22.812Z,100352.63
2022-12-14T06:23:26.358Z,100367.44
2022-12-14T06:25:31.315Z,100360.56
2022-12-14T06:27:34.553Z,100361.53
2022-12-14T06:29:37.977Z,100366.81
2022-12-14T06:31:41.321Z,100365.09
2022-12-14T06:33:45.727Z,100361.72
2022-12-14T06:35:49.372Z,100354.78
2022-12-14T06:37:53.532Z,100371.28
2022-12-14T06:39:57.252Z,100369.44
2022-12-14T06:42:02.179Z,100367.69
2022-12-14T06:44:07.292Z,100349.31
2022-12-14T06:46:15.603Z,100370.94
2022-12-14T06:48:19.476Z,100363.91
2022-12-14T06:50:23.099Z,100364.66
2022-12-14T06:52:27.521Z,100362.06
2022-12-14T06:54:31.743Z,100369.94
2022-12-14T06:56:35.570Z,100369.84
2022-12-14T06:58:40.909Z,100366.34
2022-12-14T07:00:44.708Z,100380.34
2022-12-14T07:02:48.976Z,100380.50
2022-12-14T07:04:52.715Z,100383.19
2022-12-14T07:06:56.296Z,100381.47
2022-12-14T07:09:02.110Z,100380.72
2022-12-14T07:11:07.146Z,100382.44
2022-12-14T07:13:11.084Z,100380.72
2022-12-14T07:15:16.111Z,100376.31
2022-12-14T07:17:20.253Z,100381.41
2022-12-14T07:19:23.881Z,100390.19
2022-12-14T07:21:28.035Z,100384.22
2022-12-14T07:23:33.512Z,100388.66
2022-12-14T07:25:37.446Z,100388.66
2022-12-14T07:27:40.980Z,100385.25
2022-12-14T07:29:45.059Z,100388.84
2022-12-14T07:31:50.212Z,100393.28
2022-12-14T07:33:54.655Z,100392.47
2022-12-14T07:36:03.834Z,100391.72
2022-12-14T07:38:07.532Z,100398.78
2022-12-14T07:40:12.265Z,100397.97
2022-12-14T07:42:15.799Z,100394.66
2022-12-14T07:44:23.727Z,100401.63
2022-12-14T07:46:29.318Z,100400.84
2022-12-14T07:48:34.396Z,100403.44
2022-12-14T07:50:38.120Z,100402.63
2022-12-14T07:52:41.965Z,100401.78
2022-12-14T07:54:45.590Z,100407.91
2022-12-14T07:56:49.737Z,100406.22
2022-12-14T07:58:54.112Z,100403.59
2022-12-14T08:00:57.833Z,100412.44
2022-12-14T08:03:01.442Z,100420.28
2022-12-14T08:05:12.357Z,100411.41
2022-12-14T08:07:16.345Z,100415.50
2022-12-14T08:09:21.100Z,100418.88
2022-12-14T08:11:25.894Z,100426.72
2022-12-14T08:13:31.826Z,100423.16
2022-12-14T08:15:39.953Z,100428.34
2022-12-14T08:17:43.930Z,100424.03
2022-12-14T08:19:47.488Z,100438.78
2022-12-14T08:21:52.610Z,100434.50
2022-12-14T08:23:57.364Z,100442.34
2022-12-14T08:26:02.411Z,100444.03
2022-12-14T08:28:06.240Z,100442.34
2022-12-14T08:30:11.256Z,100448.47
2022-12-14T08:32:14.854Z,100453.75
2022-12-14T08:34:22.971Z,100454.78
2022-12-14T08:36:28.354Z,100456.63
2022-12-14T08:38:33.273Z,100450.66
2022-12-14T08:40:37.031Z,100452.44
2022-12-14T08:42:41.065Z,100449.03
2022-12-14T08:44:44.661Z,100455.16
2022-12-14T08:46:48.420Z,100459.63
2022-12-14T08:48:53.367Z,100464.91
2022-12-14T08:51:02.177Z,100466.75
2022-12-14T08:53:06.314Z,100475.50
2022-12-14T08:55:11.529Z,100478.00
2022-12-14T08:57:16.336Z,100484.81
2022-12-14T08:59:52.173Z,100484.75
2022-12-14T09:01:45.836Z,100485.56
2022-12-14T09:03:50.124Z,100489.84
2022-12-14T09:05:54.628Z,100483.59
2022-12-14T09:07:59.246Z,100491.31
2022-12-14T09:10:03.467Z,100492.91
2022-12-14T09:12:09.370Z,100495.34
2022-12-14T09:14:13.040Z,100494.34
2022-12-14T09:16:18.482Z,100495.88
2022-12-14T09:18:22.100Z,100506.13
2022-12-14T09:20:25.691Z,100505.06
2022-12-14T09:22:30.679Z,100506.78
2022-12-14T09:24:34.681Z,100518.81
2022-12-14T09:26:38.270Z,100509.94
2022-12-14T09:28:46.565Z,100512.44
2022-12-14T09:30:54.988Z,100516.72
2022-12-14T09:32:58.798Z,100516.53
2022-12-14T09:35:02.458Z,100518.13
2022-12-14T09:37:07.930Z,100512.81
2022-12-14T09:39:15.059Z,100524.00
2022-12-14T09:41:27.042Z,100520.34
2022-12-14T09:43:40.764Z,100523.66
2022-12-14T09:45:52.217Z,100521.84
2022-12-14T09:48:02.429Z,100519.09
2022-12-14T09:50:13.139Z,100526.81
2022-12-14T09:52:20.196Z,100531.09
2022-12-14T09:54:28.160Z,100528.53
2022-12-14T09:56:32.883Z,100536.47
2022-12-14T09:58:37.682Z,100540.94
2022-12-14T10:00:51.369Z,100542.88
2022-12-14T10:03:21.466Z,100551.88
2022-12-14T10:05:50.017Z,100541.53
2022-12-14T10:08:04.282Z,100548.56
2022-12-14T10:10:19.122Z,100556.59
2022-12-14T10:12:40.407Z,100549.97
2022-12-14T10:14:58.381Z,100553.59
2022-12-14T10:17:11.860Z,100558.00
2022-12-14T10:19:29.394Z,100559.94
2022-12-14T10:21:44.806Z,100564.44
2022-12-14T10:23:56.546Z,100569.66
2022-12-14T10:26:08.065Z,100564.50
2022-12-14T10:28:19.054Z,100570.50
2022-12-14T10:30:23.172Z,100576.56
2022-12-14T10:32:33.579Z,100575.75
2022-12-14T10:34:42.410Z,100569.72
2022-12-14T10:36:54.227Z,100579.25
2022-12-14T10:39:00.474Z,100579.25
2022-12-14T10:41:17.321Z,100580.13
2022-12-14T10:43:36.500Z,100592.25
2022-12-14T10:45:47.150Z,100593.88
2022-12-14T10:47:54.112Z,100597.44
2022-12-14T10:50:05.419Z,100594.88
2022-12-14T10:52:17.079Z,100595.88
2022-12-14T10:54:28.336Z,100587.47
2022-12-14T10:56:35.192Z,100595.50
2022-12-14T10:58:38.683Z,100601.63
2022-12-14T11:00:42.479Z,100599.88
2022-12-14T11:02:50.257Z,100600.72
2022-12-14T11:04:55.440Z,100600.72
2022-12-14T11:07:04.480Z,100599.81
2022-12-14T11:09:21.805Z,100592.88
2022-12-14T11:11:27.419Z,100601.44
2022-12-14T11:13:31.280Z,100601.38
2022-12-14T11:15:38.010Z,100603.81
2022-12-14T11:17:43.141Z,100607.25
2022-12-14T11:20:04.057Z,100608.97
2022-12-14T11:22:21.737Z,100609.88
2022-12-14T11:24:27.785Z,100617.72
2022-12-14T11:26:35.684Z,100612.56
2022-12-14T11:28:49.966Z,100620.41
2022-12-14T11:30:57.826Z,100617.78
2022-12-14T11:33:01.508Z,100618.50
2022-12-14T11:35:05.568Z,100616.41
2022-12-14T11:37:23.752Z,100621.06
2022-12-14T11:39:27.460Z,100616.88
2022-12-14T11:41:35.844Z,100619.66
2022-12-14T11:43:39.482Z,100619.94
2022-12-14T11:45:51.711Z,100609.97
2022-12-14T11:48:12.552Z,100604.38
2022-12-14T11:50:25.355Z,100612.94
2022-12-14T11:52:42.854Z,100609.22
2022-12-14T11:54:50.250Z,100610.88
2022-12-14T11:57:00.498Z,100613.50
2022-12-14T11:59:04.100Z,100611.81
2022-12-14T12:01:13.564Z,100607.56
2022-12-14T12:03:23.556Z,100610.41
2022-12-14T12:05:28.993Z,100612.41
2022-12-14T12:07:36.239Z,100608.13
2022-12-14T12:09:43.154Z,100610.94
2022-12-14T12:11:47.511Z,100607.63
2022-12-14T12:13:54.388Z,100608.66
2022-12-14T12:16:02.358Z,100608.84
2022-12-14T12:18:09.941Z,100605.47
2022-12-14T12:20:24.687Z,100604.63
2022-12-14T12:22:31.567Z,100601.06
2022-12-14T12:25:08.190Z,100605.31
2022-12-14T12:27:12.254Z,100597.53
2022-12-14T12:29:22.684Z,100603.56
2022-12-14T12:31:32.954Z,100602.66
2022-12-14T12:33:44.829Z,100595.56
2022-12-14T12:35:53.596Z,100599.00
2022-12-14T12:38:01.569Z,100608.56
2022-12-14T12:40:16.210Z,100611.19
2022-12-14T12:42:26.072Z,100613.69
2022-12-14T12:44:44.848Z,100618.03
2022-12-14T12:47:40.086Z,100624.09
2022-12-14T12:49:37.524Z,100611.84
2022-12-14T12:51:47.805Z,100617.09
2022-12-14T12:53:57.199Z,100608.38
2022-12-14T12:56:09.194Z,100606.44
2022-12-14T12:58:22.929Z,100614.00
2022-12-14T13:00:28.581Z,100617.22
2022-12-14T13:02:35.443Z,100615.97
2022-12-14T13:04:47.798Z,100616.69
2022-12-14T13:06:59.091Z,100619.31
2022-12-14T13:09:11.723Z,100615.78
2022-12-14T13:11:26.489Z,100612.00
2022-12-14T13:13:34.828Z,100621.47
2022-12-14T13:15:43.494Z,100613.63
2022-12-14T13:17:51.010Z,100626.94
2022-12-14T13:19:57.385Z,100618.47
2022-12-14T13:22:06.389Z,100625.56
2022-12-14T13:24:17.933Z,100623.16
2022-12-14T13:27:00.576Z,100620.59
2022-12-14T13:29:09.372Z,100631.22
2022-12-14T13:31:22.372Z,100625.16
2022-12-14T13:33:59.732Z,100628.81
2022-12-14T13:36:33.928Z,100626.25
2022-12-14T13:38:56.487Z,100625.41
2022-12-14T13:41:20.924Z,100635.97
2022-12-14T13:43:40.458Z,100629.84
2022-12-14T13:45:49.676Z,100637.69
2022-12-14T13:47:56.892Z,100643.69
2022-12-14T13:52:37.551Z,100639.47
2022-12-14T13:54:41.602Z,100647.44
2022-12-14T13:56:45.959Z,100643.06
2022-12-14T13:58:53.935Z,100642.25
2022-12-14T14:01:04.008Z,100644.09
2022-12-14T14:03:09.998Z,100637.13
2022-12-14T14:05:39.989Z,100646.88
2022-12-14T14:07:53.809Z,100640.03
2022-12-14T14:10:04.950Z,100640.28
2022-12-14T14:12:53.393Z,100650.00
2022-12-14T14:15:04.977Z,100650.06
2022-12-14T14:17:14.685Z,100651.97
2022-12-14T14:19:24.188Z,100651.09
2022-12-14T14:21:58.920Z,100658.03
2022-12-14T14:24:22.116Z,100667.69
2022-12-14T14:26:30.819Z,100652.88
2022-12-14T14:28:34.997Z,100660.94
2022-12-14T14:30:44.406Z,100661.16
2022-12-14T14:32:48.527Z,100659.56
2022-12-14T14:34:53.091Z,100658.88
2022-12-14T14:36:57.001Z,100657.44
2022-12-14T14:39:01.991Z,100660.22
2022-12-14T14:41:16.628Z,100661.22
2022-12-14T14:43:29.157Z,100656.16
2022-12-14T14:45:38.783Z,100657.97
2022-12-14T14:47:44.794Z,100655.47
2022-12-14T14:49:54.588Z,100658.19
2022-12-14T14:51:59.400Z,100662.56
2022-12-14T14:55:11.082Z,100660.75
2022-12-14T14:57:01.117Z,100655.53
2022-12-14T14:59:51.212Z,100670.25
2022-12-14T15:01:58.312Z,100671.94
2022-12-14T15:04:07.958Z,100668.38
2022-12-14T15:06:15.865Z,100668.38
2022-12-14T15:08:24.102Z,100675.38
2022-12-14T15:10:32.600Z,100682.41
2022-12-14T15:12:43.166Z,100684.19
2022-12-14T15:14:51.893Z,100685.97
2022-12-14T15:16:55.701Z,100690.31
2022-12-14T15:19:23.592Z,100689.41
2022-12-14T15:21:27.163Z,100701.59
2022-12-14T15:23:36.969Z,100699.00
2022-12-14T15:25:40.470Z,100702.50
2022-12-14T15:27:43.997Z,100706.13
2022-12-14T15:29:49.229Z,100708.88
2022-12-14T15:31:59.978Z,100711.66
2022-12-14T15:34:04.390Z,100715.41
2022-12-14T15:36:15.635Z,100717.41
2022-12-14T15:38:24.369Z,100714.09
2022-12-14T15:40:30.348Z,100721.13
2022-12-14T15:42:33.709Z,100727.31
2022-12-14T15:44:37.148Z,100726.44
2022-12-14T15:46:40.823Z,100727.38
2022-12-14T15:48:44.369Z,100729.13
2022-12-14T15:50:50.960Z,100726.66
2022-12-14T15:53:00.243Z,100739.78
2022-12-14T15:55:03.527Z,100733.69
2022-12-14T15:57:14.432Z,100733.94
2022-12-14T15:59:21.564Z,100733.94
2022-12-14T16:01:29.212Z,100734.00
2022-12-14T16:03:37.850Z,100737.50
2022-12-14T16:05:41.426Z,100735.78
2022-12-14T16:07:48.815Z,100734.00
2022-12-14T16:09:58.337Z,100735.00
2022-12-14T16:12:06.007Z,100738.63
2022-12-14T16:14:19.615Z,100736.81
2022-12-14T16:16:22.796Z,100733.31
2022-12-14T16:18:26.598Z,100735.00
2022-12-14T16:20:31.996Z,100741.13
2022-12-14T16:22:39.465Z,100734.94
2022-12-14T16:25:01.616Z,100738.34
2022-12-14T16:27:06.290Z,100739.13
2022-12-14T16:29:19.528Z,100731.16
2022-12-14T16:31:25.217Z,100739.78
2022-12-14T16:33:30.324Z,100743.25
2022-12-14T16:35:36.970Z,100748.47
2022-12-14T16:37:40.315Z,100749.34
2022-12-14T16:39:47.726Z,100740.72
2022-12-14T16:41:58.562Z,100745.19
2022-12-14T16:44:02.675Z,100746.06
2022-12-14T16:46:20.804Z,100751.19
2022-12-14T16:48:24.860Z,100751.09
2022-12-14T16:53:15.289Z,100750.25
2022-12-14T16:55:20.114Z,100747.63
2022-12-14T16:57:25.892Z,100740.63
2022-12-14T16:59:38.184Z,100748.47
2022-12-14T17:01:46.169Z,100751.13
2022-12-14T17:04:00.285Z,100748.63
2022-12-14T17:06:06.857Z,100746.06
2022-12-14T17:08:12.783Z,100747.75
2022-12-14T17:10:17.791Z,100742.53
2022-12-14T17:12:21.416Z,100742.56
2022-12-14T17:14:26.547Z,100744.47
2022-12-14T17:16:30.220Z,100741.13
2022-12-14T17:18:36.135Z,100743.91
2022-12-14T17:20:40.320Z,100737.97
2022-12-14T17:22:49.365Z,100746.09
2022-12-14T17:24:53.429Z,100738.41
2022-12-14T17:26:57.607Z,100735.94
2022-12-14T17:29:01.207Z,100740.41
2022-12-14T17:31:06.572Z,100734.59
2022-12-14T17:33:10.892Z,100745.13
2022-12-14T17:35:18.496Z,100747.03
2022-12-14T17:37:24.317Z,100747.13
2022-12-14T17:39:28.877Z,100749.78
2022-12-14T17:41:32.615Z,100748.06
2022-12-14T17:43:36.922Z,100748.09
2022-12-14T17:45:41.537Z,100756.78
2022-12-14T17:47:46.602Z,100750.78
2022-12-14T17:49:50.151Z,100755.25
2022-12-14T17:51:53.933Z,100757.03
2022-12-14T17:53:59.629Z,100755.34
2022-12-14T17:56:03.211Z,100754.66
2022-12-14T17:58:06.999Z,100756.47
2022-12-14T18:00:33.625Z,100753.09
2022-12-14T18:02:38.092Z,100759.28
2022-12-14T18:04:43.188Z,100748.88
2022-12-14T18:06:46.900Z,100758.47
2022-12-14T18:08:50.505Z,100756.72
2022-12-14T18:10:57.721Z,100765.44
2022-12-14T18:13:02.511Z,100763.66
2022-12-14T18:15:11.948Z,100762.78
2022-12-14T18:17:16.286Z,100771.53
2022-12-14T18:19:20.023Z,100769.78
2022-12-14T18:21:28.072Z,100778.50
2022-12-14T18:23:33.276Z,100777.69
2022-12-14T18:25:38.524Z,100780.31
2022-12-14T18:27:42.635Z,100775.13
2022-12-14T18:29:46.383Z,100783.06
2022-12-14T18:31:50.502Z,100779.66
2022-12-14T18:33:54.230Z,100771.91
2022-12-14T18:35:58.659Z,100770.19
2022-12-14T18:38:03.812Z,100770.22
2022-12-14T18:40:08.970Z,100773.78
2022-12-14T18:42:14.543Z,100768.59
2022-12-14T18:44:22.463Z,100778.28
2022-12-14T18:46:27.029Z,100768.78
2022-12-14T18:48:30.547Z,100770.59
2022-12-14T18:50:37.256Z,100766.28
2022-12-14T18:52:45.064Z,100775.91
2022-12-14T18:54:52.005Z,100773.34
2022-12-14T18:56:55.789Z,100778.63
2022-12-14T18:59:00.687Z,100780.50
2022-12-14T19:01:04.110Z,100779.75
2022-12-14T19:03:08.255Z,100782.38
2022-12-14T19:05:12.636Z,100784.19
2022-12-14T19:07:16.989Z,100783.31
2022-12-14T19:09:20.943Z,100780.75
2022-12-14T19:11:31.137Z,100781.63
2022-12-14T19:13:34.615Z,100787.69
2022-12-14T19:15:38.659Z,100796.41
2022-12-14T19:17:42.355Z,100792.13
2022-12-14T19:19:46.003Z,100800.84
2022-12-14T19:21:49.715Z,100810.44
2022-12-14T19:23:53.734Z,100807.91
2022-12-14T19:25:57.357Z,100807.91
2022-12-14T19:30:27.349Z,100816.75
2022-12-14T19:32:30.788Z,100818.63
2022-12-14T19:34:34.357Z,100821.31
2022-12-14T19:36:37.919Z,100822.25
2022-12-14T19:38:41.425Z,100815.38
2022-12-14T19:40:46.616Z,100821.56
2022-12-14T19:42:50.632Z,100818.19
2022-12-14T19:44:55.854Z,100827.81
2022-12-14T19:46:59.582Z,100826.16
2022-12-14T19:49:03.715Z,100824.50
2022-12-14T19:51:08.882Z,100828.91
2022-12-14T19:53:12.608Z,100833.34
2022-12-14T19:55:16.330Z,100826.50
2022-12-14T19:57:20.554Z,100834.34
2022-12-14T19:59:24.639Z,100832.66
2022-12-14T20:01:32.827Z,100837.94
2022-12-14T20:03:37.324Z,100836.28
2022-12-14T20:05:41.518Z,100834.56
2022-12-14T20:07:45.319Z,100832.88
2022-12-14T20:09:49.485Z,100839.81
2022-12-14T20:11:53.548Z,100845.00
2022-12-14T20:14:02.953Z,100841.53
2022-12-14T20:16:07.715Z,100841.50
2022-12-14T20:18:13.223Z,100838.00
2022-12-14T20:20:17.092Z,100848.47
2022-12-14T20:22:20.791Z,100844.13
2022-12-14T20:24:24.253Z,100845.94
2022-12-14T20:26:28.657Z,100846.78
2022-12-14T20:28:32.391Z,100843.31
2022-12-14T20:30:36.187Z,100837.28
2022-12-14T20:32:41.201Z,100839.91
2022-12-14T20:34:46.236Z,100834.66
2022-12-14T20:36:49.886Z,100841.59
2022-12-14T20:38:56.171Z,100839.00
2022-12-14T20:41:06.108Z,100838.16
2022-12-14T20:43:10.005Z,100843.34
2022-12-14T20:45:13.493Z,100845.16
2022-12-14T20:47:17.294Z,100843.44
2022-12-14T20:49:23.521Z,100844.38
2022-12-14T20:51:30.349Z,100843.53
2022-12-14T20:53:34.103Z,100847.03
2022-12-14T20:55:37.839Z,100846.16
2022-12-14T20:57:41.568Z,100848.81
2022-12-14T20:59:45.132Z,100848.81
2022-12-14T21:01:55.059Z,100845.34
2022-12-14T21:04:02.310Z,100849.72
2022-12-14T21:06:06.068Z,100856.63
2022-12-14T21:08:11.699Z,100856.66
2022-12-14T21:10:15.298Z,100866.22
2022-12-14T21:12:21.053Z,100861.91
2022-12-14T21:14:26.914Z,100866.28
2022-12-14T21:16:30.832Z,100871.53
2022-12-14T21:18:34.374Z,100875.00
2022-12-14T21:20:38.180Z,100871.53
2022-12-14T21:22:41.798Z,100869.81
2022-12-14T21:25:04.738Z,100866.31
2022-12-14T21:27:10.271Z,100864.59
2022-12-14T21:29:15.466Z,100875.03
2022-12-14T21:31:19.197Z,100870.72
2022-12-14T21:33:22.881Z,100881.13
2022-12-14T21:35:26.504Z,100870.72
2022-12-14T21:37:30.193Z,100871.63
2022-12-14T21:39:33.858Z,100877.72
2022-12-14T21:41:56.187Z,100874.25
2022-12-14T21:44:00.712Z,100879.47
2022-12-14T21:46:04.372Z,100882.94
2022-12-14T21:48:07.984Z,100883.00
2022-12-14T21:50:11.708Z,100895.16
2022-12-14T21:52:19.083Z,100888.19
2022-12-14T21:54:22.813Z,100881.22
2022-12-14T21:56:45.544Z,100882.13
2022-12-14T21:58:54.156Z,100882.16
2022-12-14T22:00:57.853Z,100883.97
2022-12-14T22:03:01.788Z,100883.09
2022-12-14T22:05:05.805Z,100888.34
2022-12-14T22:07:09.455Z,100881.44
2022-12-14T22:09:13.113Z,100882.34
2022-12-14T22:11:16.880Z,100886.66
2022-12-14T22:13:20.496Z,100882.34
2022-12-14T22:15:25.353Z,100887.56
2022-12-14T22:17:29.064Z,100878.00
2022-12-14T22:19:32.964Z,100877.13
2022-12-14T22:21:39.419Z,100884.88
2022-12-14T22:23:43.995Z,100881.41
2022-12-14T22:25:51.214Z,100884.91
2022-12-14T22:27:54.857Z,100884.91
2022-12-14T22:29:58.365Z,100882.31
2022-12-14T22:32:03.645Z,100887.53
2022-12-14T22:34:09.077Z,100886.66
2022-12-14T22:36:12.557Z,100881.50
2022-12-14T22:38:16.181Z,100885.00
2022-12-14T22:40:20.172Z,100882.38
2022-12-14T22:42:23.967Z,100887.63
2022-12-14T22:44:27.569Z,100886.78
2022-12-14T22:46:32.034Z,100882.47
2022-12-14T22:48:38.524Z,100883.34
2022-12-14T22:50:42.181Z,100879.03
2022-12-14T22:52:49.492Z,100884.22
2022-12-14T22:54:54.343Z,100879.03
2022-12-14T22:57:02.604Z,100877.38
2022-12-14T22:59:10.741Z,100879.09
2022-12-14T23:01:16.189Z,100866.94
2022-12-14T23:03:19.968Z,100873.00
2022-12-14T23:05:25.152Z,100880.81
2022-12-14T23:07:28.682Z,100883.38
2022-12-14T23:09:49.589Z,100883.38
2022-12-14T23:12:11.918Z,100875.66
2022-12-14T23:14:33.679Z,100878.31
2022-12-14T23:16:54.868Z,100885.19
2022-12-14T23:19:16.040Z,100880.88
2022-12-14T23:21:38.665Z,100884.31
2022-12-14T23:24:01.639Z,100874.78
2022-12-14T23:26:23.200Z,100880.88
2022-12-14T23:28:44.278Z,100884.34
2022-12-14T23:31:11.497Z,100883.50
2022-12-14T23:33:32.719Z,100879.22
2022-12-14T23:35:53.689Z,100879.19
2022-12-14T23:38:15.914Z,100882.72
2022-12-14T23:40:37.142Z,100881.03
2022-12-14T23:42:57.870Z,100874.09
2022-12-14T23:45:18.930Z,100890.59
2022-12-14T23:47:39.725Z,100889.78
2022-12-14T23:50:00.725Z,100898.53
2022-12-14T23:52:21.642Z,100891.59
2022-12-14T23:54:44.021Z,100890.72
2022-12-14T23:57:04.835Z,100888.97
2022-12-14T23:59:31.603Z,100887.22
